Time;durP1;ratioP1;P1;durP2;ratioP2;P2;SDS_P1;SDS_P2;PMS_P1;PMS_P2;Temp;Humidity;BMP_temperature;BMP_pressure;BME280_temperature;BME280_humidity;BME280_pressure;Samples;Min_cycle;Max_cycle;Signal;HPM_P1;HPM_P2
2021/11/05 00:01:29;;;;;;;8.20;7.40;;;;;;;;;;5054788;28;20286;-80
2021/11/05 00:03:56;;;;;;;10.73;7.50;;;;;;;;;;5054018;28;20299;-80
2021/11/05 00:06:24;;;;;;;9.40;7.00;;;;;;;;;;5054017;28;20284;-80
2021/11/05 00:08:53;;;;;;;9.57;7.03;;;;;;;;;;5054436;28;20204;-80
2021/11/05 00:11:20;;;;;;;9.23;6.73;;;;;;;;;;5054538;28;20295;-80
2021/11/05 00:13:47;;;;;;;8.93;6.83;;;;;;;;;;5054046;28;20749;-80
2021/11/05 00:16:14;;;;;;;9.03;6.43;;;;;;;;;;5055122;28;20200;-80
2021/11/05 00:18:41;;;;;;;9.17;6.80;;;;;;;;;;5054378;28;20234;-80
2021/11/05 00:21:08;;;;;;;10.43;7.30;;;;;;;;;;5054475;28;20286;-80
2021/11/05 00:23:36;;;;;;;9.87;6.77;;;;;;;;;;5054311;28;20291;-80
2021/11/05 00:26:04;;;;;;;9.93;6.33;;;;;;;;;;5054959;28;20207;-79
2021/11/05 00:28:31;;;;;;;8.37;7.03;;;;;;;;;;5054480;28;20284;-80
2021/11/05 00:30:59;;;;;;;9.77;7.00;;;;;;;;;;5052810;28;20781;-80
2021/11/05 00:33:26;;;;;;;8.43;6.83;;;;;;;;;;5053561;28;20250;-79
2021/11/05 00:35:53;;;;;;;8.83;6.67;;;;;;;;;;5052902;28;20223;-80
2021/11/05 00:38:20;;;;;;;8.20;6.77;;;;;;;;;;5053897;28;20290;-80
2021/11/05 00:40:47;;;;;;;9.03;6.57;;;;;;;;;;5041292;28;20230;-80
2021/11/05 00:43:16;;;;;;;10.27;6.20;;;;;;;;;;5053819;28;20718;-80
2021/11/05 00:45:43;;;;;;;9.83;6.37;;;;;;;;;;5054487;28;20286;-80
2021/11/05 00:48:10;;;;;;;12.33;6.43;;;;;;;;;;5052932;28;20223;-81
2021/11/05 00:50:37;;;;;;;8.30;6.30;;;;;;;;;;5053241;28;20235;-81
2021/11/05 00:53:05;;;;;;;7.43;6.60;;;;;;;;;;5052980;28;20819;-80
2021/11/05 00:55:32;;;;;;;7.20;6.33;;;;;;;;;;5054125;28;20276;-80
2021/11/05 00:57:59;;;;;;;8.63;6.90;;;;;;;;;;5052896;28;20637;-79
2021/11/05 01:00:32;;;;;;;8.70;6.57;;;;;;;;;;5054124;28;20310;-79
2021/11/05 01:02:59;;;;;;;10.50;6.80;;;;;;;;;;5053763;28;20283;-79
2021/11/05 01:05:26;;;;;;;12.33;7.23;;;;;;;;;;5053302;28;20230;-80
2021/11/05 01:07:54;;;;;;;8.40;7.10;;;;;;;;;;5049977;28;20227;-80
2021/11/05 01:10:21;;;;;;;7.70;7.00;;;;;;;;;;5053230;28;20235;-80
2021/11/05 01:12:48;;;;;;;9.47;7.13;;;;;;;;;;5053496;28;20286;-80
2021/11/05 01:15:15;;;;;;;10.00;6.43;;;;;;;;;;5052521;28;20321;-79
2021/11/05 01:17:44;;;;;;;9.27;6.80;;;;;;;;;;5052773;28;20238;-79
2021/11/05 01:20:13;;;;;;;7.77;6.60;;;;;;;;;;5052903;28;20701;-79
2021/11/05 01:22:40;;;;;;;6.93;6.23;;;;;;;;;;5053010;28;20583;-80
2021/11/05 01:25:08;;;;;;;11.27;7.30;;;;;;;;;;5052566;28;20702;-79
2021/11/05 01:27:35;;;;;;;12.77;8.50;;;;;;;;;;5053111;28;20286;-80
2021/11/05 01:30:02;;;;;;;11.90;8.27;;;;;;;;;;5053345;28;20286;-80
2021/11/05 01:32:29;;;;;;;9.80;7.90;;;;;;;;;;5051953;28;20235;-79
2021/11/05 01:34:58;;;;;;;10.73;8.20;;;;;;;;;;5052509;28;20306;-79
2021/11/05 01:37:26;;;;;;;12.50;7.97;;;;;;;;;;5052047;28;20278;-80
2021/11/05 01:39:53;;;;;;;10.80;7.50;;;;;;;;;;5052868;28;20669;-80
2021/11/05 01:42:20;;;;;;;9.27;7.70;;;;;;;;;;5052453;28;20232;-79
2021/11/05 01:44:47;;;;;;;9.30;7.90;;;;;;;;;;5052516;28;20225;-80
2021/11/05 01:47:14;;;;;;;9.33;7.80;;;;;;;;;;5052248;28;20280;-80
2021/11/05 01:49:42;;;;;;;8.63;7.10;;;;;;;;;;5052794;28;20237;-79
2021/11/05 01:52:10;;;;;;;12.17;7.20;;;;;;;;;;5052156;28;20737;-81
2021/11/05 01:54:38;;;;;;;9.83;7.20;;;;;;;;;;5052289;28;20297;-80
2021/11/05 01:57:05;;;;;;;7.90;6.63;;;;;;;;;;5052379;28;20252;-80
2021/11/05 01:59:33;;;;;;;10.30;7.33;;;;;;;;;;5041789;28;20236;-81
2021/11/05 02:02:01;;;;;;;7.53;6.73;;;;;;;;;;5052473;28;20300;-80
2021/11/05 02:04:29;;;;;;;9.63;7.43;;;;;;;;;;5052511;28;20286;-79
2021/11/05 02:06:57;;;;;;;10.13;7.23;;;;;;;;;;5052253;28;20636;-80
2021/11/05 02:09:29;;;;;;;9.77;7.40;;;;;;;;;;5052331;28;20278;-80
2021/11/05 02:11:57;;;;;;;8.33;7.43;;;;;;;;;;5048168;28;20286;-81
2021/11/05 02:14:25;;;;;;;10.67;7.40;;;;;;;;;;5052180;28;20325;-79
2021/11/05 02:16:53;;;;;;;7.60;6.57;;;;;;;;;;5051356;28;20288;-79
2021/11/05 02:19:22;;;;;;;9.53;6.50;;;;;;;;;;5051310;28;20229;-80
2021/11/05 02:21:51;;;;;;;8.87;6.60;;;;;;;;;;5052260;28;20280;-79
2021/11/05 02:24:19;;;;;;;10.13;7.30;;;;;;;;;;5046030;28;20285;-79
2021/11/05 02:26:46;;;;;;;7.30;6.40;;;;;;;;;;5051703;28;20283;-79
2021/11/05 02:29:14;;;;;;;7.50;6.63;;;;;;;;;;5046761;28;20225;-79
2021/11/05 02:31:41;;;;;;;6.53;5.83;;;;;;;;;;5051685;28;20206;-79
2021/11/05 02:34:09;;;;;;;7.43;6.50;;;;;;;;;;5032341;28;20224;-79
2021/11/05 02:36:36;;;;;;;7.60;6.20;;;;;;;;;;5033380;28;20236;-79
2021/11/05 02:39:07;;;;;;;7.17;6.30;;;;;;;;;;5051767;28;20307;-79
2021/11/05 02:41:35;;;;;;;7.47;6.27;;;;;;;;;;5051803;28;20203;-79
2021/11/05 02:44:02;;;;;;;7.80;5.93;;;;;;;;;;5051272;28;20192;-79
2021/11/05 02:46:30;;;;;;;6.83;5.63;;;;;;;;;;5051428;28;20242;-79
2021/11/05 02:48:58;;;;;;;6.60;5.90;;;;;;;;;;5051757;28;20210;-79
2021/11/05 02:51:26;;;;;;;8.63;6.70;;;;;;;;;;5052162;28;20196;-79
2021/11/05 02:53:53;;;;;;;7.47;6.33;;;;;;;;;;5051114;28;20277;-79
2021/11/05 02:56:22;;;;;;;8.53;6.80;;;;;;;;;;5050639;28;20203;-79
2021/11/05 02:58:50;;;;;;;8.80;6.97;;;;;;;;;;5052010;28;20566;-80
2021/11/05 03:01:17;;;;;;;8.83;7.57;;;;;;;;;;5050282;28;20228;-79
2021/11/05 03:03:44;;;;;;;9.27;6.83;;;;;;;;;;5051949;28;20207;-80
2021/11/05 03:06:12;;;;;;;8.70;6.50;;;;;;;;;;5053753;28;20195;-79
2021/11/05 03:08:39;;;;;;;11.50;6.70;;;;;;;;;;5051536;28;20203;-80
2021/11/05 03:11:11;;;;;;;11.80;6.47;;;;;;;;;;5051403;28;20729;-80
2021/11/05 03:13:40;;;;;;;8.43;6.13;;;;;;;;;;5034957;28;20233;-79
2021/11/05 03:16:07;;;;;;;10.80;6.53;;;;;;;;;;5050651;28;20228;-80
2021/11/05 03:18:39;;;;;;;7.33;6.00;;;;;;;;;;5033553;28;20291;-80
2021/11/05 03:21:06;;;;;;;10.40;6.30;;;;;;;;;;5051025;28;20201;-79
2021/11/05 03:23:33;;;;;;;8.00;6.40;;;;;;;;;;5050343;28;20232;-80
2021/11/05 03:26:00;;;;;;;10.73;6.87;;;;;;;;;;5051100;28;20196;-80
2021/11/05 03:28:28;;;;;;;9.60;7.17;;;;;;;;;;5050625;28;20225;-79
2021/11/05 03:30:57;;;;;;;8.63;6.90;;;;;;;;;;5051058;28;20231;-80
2021/11/05 03:33:24;;;;;;;7.93;6.53;;;;;;;;;;5050237;28;20330;-79
2021/11/05 03:35:51;;;;;;;6.57;5.90;;;;;;;;;;5050379;28;20307;-79
2021/11/05 03:38:18;;;;;;;6.70;5.97;;;;;;;;;;5051259;28;20635;-80
2021/11/05 03:40:45;;;;;;;8.23;6.10;;;;;;;;;;5051077;28;20285;-80
2021/11/05 03:43:13;;;;;;;8.07;6.33;;;;;;;;;;5050841;28;20645;-80
2021/11/05 03:45:40;;;;;;;7.17;5.73;;;;;;;;;;5050098;28;20680;-80
2021/11/05 03:48:08;;;;;;;11.67;7.13;;;;;;;;;;5051045;28;20283;-80
2021/11/05 03:50:36;;;;;;;8.60;6.87;;;;;;;;;;5050181;28;20703;-79
2021/11/05 03:53:03;;;;;;;9.97;7.10;;;;;;;;;;5050709;28;20279;-79
2021/11/05 03:55:30;;;;;;;11.00;7.40;;;;;;;;;;5050799;28;21311;-79
2021/11/05 03:57:58;;;;;;;7.93;6.97;;;;;;;;;;5049774;28;20733;-81
2021/11/05 04:00:25;;;;;;;7.47;6.53;;;;;;;;;;5050738;28;20310;-79
2021/11/05 04:02:52;;;;;;;8.33;6.30;;;;;;;;;;5050324;28;20288;-80
2021/11/05 04:05:21;;;;;;;8.73;7.10;;;;;;;;;;5050383;28;20671;-79
2021/11/05 04:07:51;;;;;;;8.67;6.73;;;;;;;;;;5049771;28;20223;-79
2021/11/05 04:10:18;;;;;;;8.53;6.47;;;;;;;;;;5050719;28;20193;-79
2021/11/05 04:12:46;;;;;;;7.50;6.23;;;;;;;;;;5049505;28;20255;-80
2021/11/05 04:15:13;;;;;;;7.50;5.90;;;;;;;;;;5044796;28;20316;-79
2021/11/05 04:17:40;;;;;;;6.50;5.87;;;;;;;;;;5054336;28;20654;-79
2021/11/05 04:20:08;;;;;;;7.47;6.30;;;;;;;;;;5054165;28;20490;-79
2021/11/05 04:22:37;;;;;;;6.27;5.37;;;;;;;;;;5053919;28;20608;-79
2021/11/05 04:25:05;;;;;;;7.03;5.43;;;;;;;;;;5052697;28;20275;-79
2021/11/05 04:27:32;;;;;;;6.13;5.53;;;;;;;;;;5053782;28;20288;-81
2021/11/05 04:30:00;;;;;;;8.43;6.73;;;;;;;;;;5053591;28;20230;-79
2021/11/05 04:32:27;;;;;;;9.63;7.33;;;;;;;;;;5054189;28;20227;-80
2021/11/05 04:34:54;;;;;;;10.10;7.13;;;;;;;;;;5053704;28;20273;-80
2021/11/05 04:37:21;;;;;;;11.07;7.67;;;;;;;;;;5053820;28;20227;-80
2021/11/05 04:39:50;;;;;;;11.43;8.20;;;;;;;;;;5053604;28;20288;-80
2021/11/05 04:42:17;;;;;;;11.73;8.33;;;;;;;;;;5053336;28;20291;-80
2021/11/05 04:44:44;;;;;;;11.87;9.07;;;;;;;;;;5053959;28;20221;-79
2021/11/05 04:47:12;;;;;;;11.60;8.80;;;;;;;;;;5052865;28;20271;-79
2021/11/05 04:49:39;;;;;;;13.40;9.00;;;;;;;;;;5053439;28;20299;-79
2021/11/05 04:52:06;;;;;;;13.53;9.40;;;;;;;;;;5053590;28;20284;-80
2021/11/05 04:54:34;;;;;;;15.03;11.37;;;;;;;;;;5053086;28;20306;-79
2021/11/05 04:57:02;;;;;;;17.70;10.30;;;;;;;;;;5052936;28;20239;-79
2021/11/05 04:59:30;;;;;;;16.37;10.53;;;;;;;;;;5044072;28;20639;-79
2021/11/05 05:01:57;;;;;;;15.53;10.23;;;;;;;;;;5047818;28;20191;-79
2021/11/05 05:04:24;;;;;;;13.63;9.63;;;;;;;;;;5052556;28;20200;-79
2021/11/05 05:06:52;;;;;;;16.37;9.67;;;;;;;;;;5053407;28;20312;-80
2021/11/05 05:09:19;;;;;;;14.60;9.90;;;;;;;;;;5052840;28;20283;-79
2021/11/05 05:11:47;;;;;;;14.60;10.63;;;;;;;;;;5052477;28;20242;-79
2021/11/05 05:14:16;;;;;;;15.30;10.47;;;;;;;;;;5052896;28;20224;-79
2021/11/05 05:16:43;;;;;;;15.40;10.77;;;;;;;;;;5052210;28;20236;-79
2021/11/05 05:19:10;;;;;;;14.57;10.27;;;;;;;;;;5052977;28;20287;-79
2021/11/05 05:21:38;;;;;;;14.50;10.40;;;;;;;;;;5052767;28;20292;-79
2021/11/05 05:24:05;;;;;;;14.83;9.97;;;;;;;;;;5053596;28;20279;-79
2021/11/05 05:26:32;;;;;;;14.67;9.10;;;;;;;;;;5051717;28;20191;-79
2021/11/05 05:28:59;;;;;;;12.10;8.97;;;;;;;;;;5045405;28;20279;-79
2021/11/05 05:31:28;;;;;;;12.10;8.30;;;;;;;;;;5052457;28;20239;-79
2021/11/05 05:33:55;;;;;;;12.63;8.90;;;;;;;;;;5052489;28;20227;-80
2021/11/05 05:36:23;;;;;;;11.30;8.63;;;;;;;;;;5052984;28;20307;-80
2021/11/05 05:38:50;;;;;;;10.80;8.27;;;;;;;;;;5051872;28;20228;-80
2021/11/05 05:41:17;;;;;;;12.70;8.30;;;;;;;;;;5053072;28;20194;-80
2021/11/05 05:43:45;;;;;;;12.37;9.33;;;;;;;;;;5052272;28;20610;-79
2021/11/05 05:46:12;;;;;;;12.60;8.70;;;;;;;;;;5053172;28;20235;-80
2021/11/05 05:48:41;;;;;;;13.43;8.77;;;;;;;;;;5052631;28;20282;-80
2021/11/05 05:51:08;;;;;;;12.67;8.97;;;;;;;;;;5052345;28;20282;-79
2021/11/05 05:53:35;;;;;;;12.93;8.97;;;;;;;;;;5052263;28;20292;-80
2021/11/05 05:56:02;;;;;;;13.43;8.67;;;;;;;;;;5050637;28;20597;-80
2021/11/05 05:58:30;;;;;;;9.87;8.50;;;;;;;;;;5052353;28;20679;-80
2021/11/05 06:00:57;;;;;;;11.73;8.77;;;;;;;;;;5051996;28;20280;-80
2021/11/05 06:03:24;;;;;;;11.63;8.40;;;;;;;;;;5051951;28;20321;-78
2021/11/05 06:05:53;;;;;;;9.97;7.53;;;;;;;;;;5052234;28;20291;-79
2021/11/05 06:08:20;;;;;;;12.83;9.40;;;;;;;;;;5051736;28;20231;-78
2021/11/05 06:10:47;;;;;;;26.67;20.00;;;;;;;;;;5051993;28;20294;-79
2021/11/05 06:13:14;;;;;;;22.73;18.10;;;;;;;;;;5051950;28;20294;-78
2021/11/05 06:15:42;;;;;;;19.17;15.00;;;;;;;;;;5051956;28;20327;-78
2021/11/05 06:18:09;;;;;;;14.77;11.60;;;;;;;;;;5051756;28;20680;-78
2021/11/05 06:20:37;;;;;;;11.60;8.27;;;;;;;;;;5051839;28;20195;-77
2021/11/05 06:23:05;;;;;;;11.80;8.27;;;;;;;;;;5051551;28;20329;-77
2021/11/05 06:25:32;;;;;;;13.03;10.23;;;;;;;;;;5051783;28;20576;-77
2021/11/05 06:27:59;;;;;;;12.07;9.60;;;;;;;;;;5052167;28;20287;-77
2021/11/05 06:30:27;;;;;;;14.23;9.87;;;;;;;;;;5052015;28;20219;-77
2021/11/05 06:32:54;;;;;;;11.73;8.87;;;;;;;;;;5052060;28;20291;-79
2021/11/05 06:35:21;;;;;;;11.80;8.30;;;;;;;;;;5052256;28;20303;-79
2021/11/05 06:37:49;;;;;;;12.70;9.40;;;;;;;;;;5051556;28;20286;-77
2021/11/05 06:40:18;;;;;;;13.87;9.43;;;;;;;;;;5051551;28;20576;-76
2021/11/05 06:42:45;;;;;;;14.07;10.47;;;;;;;;;;5051603;28;20198;-80
2021/11/05 06:45:13;;;;;;;14.33;9.80;;;;;;;;;;5051517;28;20238;-80
2021/11/05 06:47:40;;;;;;;12.27;9.43;;;;;;;;;;5042858;28;20785;-80
2021/11/05 06:50:08;;;;;;;14.17;8.90;;;;;;;;;;5048319;28;20671;-80
2021/11/05 06:52:36;;;;;;;12.07;8.57;;;;;;;;;;5048901;28;20224;-80
2021/11/05 06:55:03;;;;;;;12.13;8.60;;;;;;;;;;5050673;28;20672;-80
2021/11/05 06:57:32;;;;;;;11.07;7.60;;;;;;;;;;5049948;28;20612;-80
2021/11/05 06:59:59;;;;;;;13.27;8.33;;;;;;;;;;5049334;28;20739;-80
2021/11/05 07:02:26;;;;;;;15.07;8.23;;;;;;;;;;5051130;28;20227;-80
2021/11/05 07:04:54;;;;;;;13.87;8.77;;;;;;;;;;5050611;28;20281;-80
2021/11/05 07:07:21;;;;;;;15.50;9.97;;;;;;;;;;5050211;28;20283;-80
2021/11/05 07:09:48;;;;;;;15.63;9.50;;;;;;;;;;5050487;28;20282;-80
2021/11/05 07:12:16;;;;;;;12.80;9.30;;;;;;;;;;5050751;28;20279;-80
2021/11/05 07:14:44;;;;;;;12.17;9.23;;;;;;;;;;5049404;28;20243;-79
2021/11/05 07:17:12;;;;;;;14.50;10.97;;;;;;;;;;5049153;28;20255;-80
2021/11/05 07:19:39;;;;;;;14.93;10.83;;;;;;;;;;5050161;28;21082;-81
2021/11/05 07:22:06;;;;;;;17.33;11.60;;;;;;;;;;5050181;28;20211;-80
2021/11/05 07:24:35;;;;;;;19.33;12.27;;;;;;;;;;5046359;28;20214;-80
2021/11/05 07:27:03;;;;;;;20.00;13.83;;;;;;;;;;5050138;28;20282;-80
2021/11/05 07:29:31;;;;;;;17.63;12.60;;;;;;;;;;5033831;28;20284;-80
2021/11/05 07:32:01;;;;;;;18.63;12.13;;;;;;;;;;5051142;28;20292;-80
2021/11/05 07:34:32;;;;;;;17.73;11.77;;;;;;;;;;5046908;28;20234;-80
2021/11/05 07:37:00;;;;;;;13.40;11.27;;;;;;;;;;5047001;28;20227;-80
2021/11/05 07:39:27;;;;;;;27.77;9.77;;;;;;;;;;5043280;28;20287;-80
2021/11/05 07:41:55;;;;;;;8.93;6.03;;;;;;;;;;5048576;28;20234;-81
2021/11/05 07:44:22;;;;;;;7.00;6.20;;;;;;;;;;5049734;28;20288;-80
2021/11/05 07:46:49;;;;;;;7.57;6.20;;;;;;;;;;5050055;28;20237;-81
2021/11/05 07:49:18;;;;;;;8.13;5.37;;;;;;;;;;5049034;28;20266;-80
2021/11/05 07:51:45;;;;;;;6.47;5.53;;;;;;;;;;5053892;28;20291;-81
2021/11/05 07:54:13;;;;;;;8.33;5.60;;;;;;;;;;5053057;28;20663;-81
2021/11/05 07:56:40;;;;;;;6.70;5.27;;;;;;;;;;5053250;28;20258;-80
2021/11/05 07:59:07;;;;;;;9.60;7.33;;;;;;;;;;5053835;28;20207;-81
2021/11/05 08:01:35;;;;;;;7.33;5.93;;;;;;;;;;5054455;28;20234;-81
2021/11/05 08:04:02;;;;;;;6.83;5.20;;;;;;;;;;5053105;28;20744;-81
2021/11/05 08:06:30;;;;;;;6.67;5.37;;;;;;;;;;5053867;28;20223;-81
2021/11/05 08:08:58;;;;;;;8.63;5.90;;;;;;;;;;5053029;28;20277;-82
2021/11/05 08:11:29;;;;;;;5.60;4.50;;;;;;;;;;5053616;28;20227;-82
2021/11/05 08:13:56;;;;;;;9.63;7.10;;;;;;;;;;5051016;28;20269;-81
2021/11/05 08:16:23;;;;;;;10.57;7.03;;;;;;;;;;5050651;28;20302;-81
2021/11/05 08:18:51;;;;;;;19.17;13.03;;;;;;;;;;5053800;28;20578;-81
2021/11/05 08:21:19;;;;;;;19.40;14.73;;;;;;;;;;5052226;28;20207;-80
2021/11/05 08:23:47;;;;;;;23.53;17.60;;;;;;;;;;5052238;28;20291;-81
2021/11/05 08:26:15;;;;;;;15.77;11.70;;;;;;;;;;5051761;28;20192;-82
2021/11/05 08:28:42;;;;;;;9.33;6.17;;;;;;;;;;5051093;28;20235;-81
2021/11/05 08:31:11;;;;;;;8.47;5.63;;;;;;;;;;5051725;28;20239;-81
2021/11/05 08:33:38;;;;;;;6.82;5.75;;;;;;;;;;5051526;28;20610;-80
2021/11/05 08:36:06;;;;;;;5.25;4.38;;;;;;;;;;5050641;28;20311;-81
2021/11/05 08:38:34;;;;;;;7.88;5.82;;;;;;;;;;5050575;28;20287;-80
2021/11/05 08:41:02;;;;;;;6.95;6.25;;;;;;;;;;5051844;28;20287;-81
2021/11/05 08:43:31;;;;;;;6.93;6.13;;;;;;;;;;5051684;28;20296;-81
2021/11/05 08:45:59;;;;;;;7.25;6.05;;;;;;;;;;5051742;28;20204;-80
2021/11/05 08:48:26;;;;;;;9.60;5.93;;;;;;;;;;5052365;28;20234;-80
2021/11/05 08:50:53;;;;;;;5.88;5.28;;;;;;;;;;5051328;28;20235;-81
2021/11/05 08:53:21;;;;;;;6.80;5.35;;;;;;;;;;5049751;28;20307;-81
2021/11/05 08:55:49;;;;;;;6.18;5.30;;;;;;;;;;5050759;28;20216;-80
2021/11/05 08:58:17;;;;;;;6.70;4.85;;;;;;;;;;5049087;28;20258;-81
2021/11/05 09:00:45;;;;;;;5.82;4.35;;;;;;;;;;5049294;28;20208;-81
2021/11/05 09:03:12;;;;;;;6.70;5.30;;;;;;;;;;5047811;28;20869;-80
2021/11/05 09:05:40;;;;;;;6.32;5.53;;;;;;;;;;5047433;28;20259;-81
2021/11/05 09:08:07;;;;;;;6.80;6.03;;;;;;;;;;5050602;28;20204;-81
2021/11/05 09:10:35;;;;;;;6.30;5.60;;;;;;;;;;5052156;28;20223;-82
2021/11/05 09:13:04;;;;;;;8.48;7.55;;;;;;;;;;5051499;28;20245;-82
2021/11/05 09:15:33;;;;;;;5.45;4.95;;;;;;;;;;5046169;28;20301;-81
2021/11/05 09:18:02;;;;;;;4.88;4.03;;;14.40;99.90;;;;;;5048827;28;20200;-81
2021/11/05 09:20:30;;;;;;;4.97;3.38;;;;;;;;;;5051340;28;20569;-81
2021/11/05 09:22:57;;;;;;;5.85;3.22;;;;;;;;;;5051971;28;20282;-81
2021/11/05 09:25:24;;;;;;;6.20;3.60;;;;;;;;;;5051990;28;20893;-81
2021/11/05 09:27:52;;;;;;;3.27;2.83;;;;;;;;;;5049714;28;20270;-81
2021/11/05 09:30:21;;;;;;;3.17;2.70;;;;;;;;;;5051884;28;20679;-82
2021/11/05 09:32:50;;;;;;;4.73;3.00;;;;;;;;;;5052778;28;20576;-82
2021/11/05 09:35:18;;;;;;;3.30;2.53;;;;;;;;;;5051722;28;20199;-83
2021/11/05 09:37:46;;;;;;;4.20;3.13;;;;;;;;;;5038877;28;20235;-81
2021/11/05 09:40:15;;;;;;;4.07;3.30;;;;;;;;;;5050749;28;20290;-81
2021/11/05 09:42:42;;;;;;;5.13;3.40;;;;;;;;;;5051098;28;20265;-82
2021/11/05 09:45:10;;;;;;;7.20;3.60;;;;;;;;;;5051123;28;20236;-82
2021/11/05 09:47:37;;;;;;;5.03;3.03;;;;;;;;;;5051203;28;20192;-81
2021/11/05 09:50:07;;;;;;;4.33;3.20;;;;;;;;;;5050890;28;20294;-84
2021/11/05 09:52:34;;;;;;;3.30;2.50;;;;;;;;;;5050954;28;20208;-83
2021/11/05 09:55:02;;;;;;;3.20;2.43;;;;;;;;;;5050689;28;20275;-82
2021/11/05 09:57:29;;;;;;;4.03;2.33;;;;;;;;;;5051247;28;20299;-82
2021/11/05 09:59:57;;;;;;;2.20;1.73;;;;;;;;;;5051053;28;20726;-83
2021/11/05 10:02:25;;;;;;;3.37;1.90;;;;;;;;;;5050939;28;20299;-82
2021/11/05 10:04:52;;;;;;;4.13;1.80;;;;;;;;;;5050417;28;20206;-82
2021/11/05 10:07:21;;;;;;;3.17;1.40;;;;;;;;;;5051459;28;20226;-82
2021/11/05 10:09:53;;;;;;;2.78;1.40;;;;;;;;;;5050344;28;20713;-83
2021/11/05 10:12:23;;;;;;;2.30;1.37;;;;;;;;;;5050175;28;20203;-82
2021/11/05 10:14:54;;;;;;;2.13;1.50;;;;;;;;;;5049995;28;20270;-82
2021/11/05 10:17:22;;;;;;;3.53;1.55;;;;;;;;;;5033457;28;20306;-82
2021/11/05 10:19:50;;;;;;;3.15;1.63;;;;;;;;;;5050838;28;20200;-82
2021/11/05 10:22:35;;;;;;;3.55;1.50;;;;;;;;;;5050296;28;20780;-82
2021/11/05 10:25:34;;;;;;;2.50;1.70;;;;;;;;;;5050386;28;20231;-83
2021/11/05 10:28:04;;;;;;;3.25;1.50;;;;;;;;;;4989012;28;20204;-83
2021/11/05 10:30:31;;;;;;;3.10;1.60;;;;;;;;;;4988032;28;20259;-84
2021/11/05 10:33:00;;;;;;;3.10;1.70;;;;;;;;;;4987702;28;20285;-83
2021/11/05 10:35:27;;;;;;;2.50;1.60;;;;;;;;;;4989335;28;20197;-83
2021/11/05 10:38:00;;;;;;;2.45;1.50;;;;;;;;;;4988975;28;20300;-84
2021/11/05 10:40:31;;;;;;;2.03;1.45;;;;;;;;;;4988314;28;20225;-83
2021/11/05 10:42:58;;;;;;;3.15;1.38;;;;;;;;;;4989434;28;20277;-83
2021/11/05 10:45:26;;;;;;;3.72;1.40;;;;;;;;;;4987264;28;20245;-82
2021/11/05 10:48:05;;;;;;;3.35;1.42;;;;;;;;;;4988747;28;20244;-83
2021/11/05 10:50:33;;;;;;;2.65;1.40;;;;;;;;;;4985369;28;20265;-82
2021/11/05 10:53:03;;;;;;;3.63;1.58;;;;;;;;;;4987983;28;20236;-83
2021/11/05 10:55:51;;;;;;;2.38;1.48;;;;;;;;;;4987725;28;20357;-83
2021/11/05 10:58:20;;;;;;;2.55;1.40;;;;;;;;;;4981099;28;20225;-83
2021/11/05 11:00:48;;;;;;;3.13;1.60;;;15.40;58.50;;;;;;4984792;28;20324;-82
2021/11/05 11:03:25;;;;;;;3.15;1.70;;;15.50;59.90;;;;;;5044435;28;20208;-83
2021/11/05 11:05:59;;;;;;;3.03;1.50;;;16.20;60.80;;;;;;5049518;28;20202;-82
2021/11/05 11:08:30;;;;;;;3.17;1.70;;;15.90;54.50;;;;;;5049129;28;20198;-83
2021/11/05 11:10:58;;;;;;;4.30;1.80;;;15.80;54.10;;;;;;5048376;28;20192;-83
2021/11/05 11:13:36;;;;;;;3.15;1.90;;;16.30;50.80;;;;;;5049174;28;20245;-81
2021/11/05 11:16:07;;;;;;;2.83;1.80;;;16.30;50.50;;;;;;5047670;28;20297;-83
2021/11/05 11:18:45;;;;;;;2.22;1.65;;;16.00;57.10;;;;;;5050516;28;20227;-81
2021/11/05 11:21:12;;;;;;;3.50;2.03;;;15.80;53.90;;;;;;5049646;28;20270;-81
2021/11/05 11:23:41;;;;;;;4.15;1.73;;;16.20;54.00;;;;;;5050022;28;20748;-81
2021/11/05 11:26:08;;;;;;;3.33;1.67;;;15.80;49.40;;;;;;5050093;28;20282;-81
2021/11/05 11:28:35;;;;;;;3.10;1.85;;;16.00;65.10;;;;;;5050623;28;20195;-82
2021/11/05 11:31:03;;;;;;;2.92;2.05;;;15.80;62.50;;;;;;5050983;28;20203;-81
2021/11/05 11:33:30;;;;;;;3.45;1.90;;;15.80;54.70;;;;;;5049739;28;20282;-81
2021/11/05 11:35:59;;;;;;;2.22;1.67;;;16.30;52.40;;;;;;5050060;28;20200;-84
2021/11/05 11:38:27;;;;;;;3.22;2.35;;;16.20;53.20;;;;;;5049942;28;20250;-83
2021/11/05 11:40:55;;;;;;;2.97;2.30;;;14.40;67.50;;;;;;5049803;28;20199;-82
2021/11/05 11:43:24;;;;;;;3.83;2.20;;;13.40;89.10;;;;;;5051811;28;20282;-83
2021/11/05 11:45:53;;;;;;;3.77;2.20;;;13.50;91.20;;;;;;5049463;28;20245;-83
2021/11/05 11:48:48;;;;;;;5.07;2.13;;;13.30;91.40;;;;;;5050165;28;20199;-83
2021/11/05 11:51:33;;;;;;;3.33;2.20;;;13.40;92.50;;;;;;4968212;28;20305;-83
2021/11/05 11:54:18;;;;;;;2.67;2.10;;;13.10;91.50;;;;;;4969513;28;20573;-82
2021/11/05 11:56:46;;;;;;;3.17;1.90;;;13.50;83.40;;;;;;4947866;28;20226;-84
2021/11/05 11:59:15;;;;;;;4.07;2.43;;;14.00;89.00;;;;;;4966574;28;20297;-82
2021/11/05 12:01:44;;;;;;;4.13;2.60;;;14.00;79.10;;;;;;4968442;28;20684;-82
2021/11/05 12:04:14;;;;;;;3.60;2.27;;;13.90;80.80;;;;;;4965649;28;20746;-82
2021/11/05 12:07:02;;;;;;;3.37;2.37;;;14.00;84.80;;;;;;4968557;28;20285;-82
2021/11/05 12:09:32;;;;;;;2.33;2.13;;;15.10;80.80;;;;;;4967001;28;20203;-80
2021/11/05 12:12:32;;;;;;;3.13;2.20;;;15.30;59.70;;;;;;4967382;28;20693;-82
2021/11/05 12:15:16;;;;;;;4.37;2.50;;;14.50;68.00;;;;;;4968509;28;20781;-82
2021/11/05 12:18:11;;;;;;;2.47;2.20;;;15.10;59.10;;;;;;4967056;28;20222;-80
2021/11/05 12:20:43;;;;;;;3.07;2.23;;;14.60;64.20;;;;;;4892741;29;20565;-82
2021/11/05 12:23:22;;;;;;;3.30;2.10;;;14.80;58.30;;;;;;4896033;29;20315;-82
2021/11/05 12:25:58;;;;;;;4.23;2.23;;;15.40;60.40;;;;;;4911068;29;20244;-80
2021/11/05 12:28:37;;;;;;;4.57;2.00;;;16.40;52.50;;;;;;4986494;28;20205;-81
2021/11/05 12:31:23;;;;;;;2.63;2.10;;;16.90;55.70;;;;;;4981710;28;20212;-83
2021/11/05 12:33:50;;;;;;;3.58;2.72;;;16.10;52.20;;;;;;4986149;28;20238;-82
2021/11/05 12:36:17;;;;;;;4.40;2.45;;;15.10;64.60;;;;;;4986022;28;20297;-81
2021/11/05 12:39:01;;;;;;;3.45;2.58;;;16.00;62.20;;;;;;4988003;28;20320;-84
2021/11/05 12:41:28;;;;;;;4.70;2.38;;;16.20;42.60;;;;;;4990556;28;20635;-82
2021/11/05 12:44:11;;;;;;;4.35;2.30;;;16.70;39.40;;;;;;4991170;28;20212;-81
2021/11/05 12:46:45;;;;;;;3.40;2.37;;;14.80;50.60;;;;;;4987394;28;20269;-80
2021/11/05 12:49:15;;;;;;;2.93;1.93;;;14.20;68.40;;;;;;4989436;28;20245;-80
2021/11/05 12:51:45;;;;;;;4.43;2.40;;;14.20;76.30;;;;;;4991515;28;20591;-81
2021/11/05 12:54:15;;;;;;;7.53;2.37;;;13.90;84.80;;;;;;4990253;28;20257;-82
2021/11/05 12:56:49;;;;;;;3.83;2.60;;;13.70;88.30;;;;;;5024120;28;20203;-81
2021/11/05 13:02:19;;;;;;;3.73;2.87;;;13.30;97.70;;;;;;5051339;28;20192;-81
2021/11/05 13:04:50;;;;;;;5.93;2.63;;;13.20;95.80;;;;;;5052108;28;20195;-81
2021/11/05 13:07:18;;;;;;;3.50;2.30;;;13.10;94.20;;;;;;5052536;28;20580;-81
2021/11/05 13:09:47;;;;;;;4.53;2.20;;;12.90;91.20;;;;;;5044216;28;20231;-81
2021/11/05 13:12:15;;;;;;;4.93;2.37;;;12.90;93.10;;;;;;5052982;28;20235;-81
2021/11/05 13:14:47;;;;;;;3.77;2.10;;;13.80;87.90;;;;;;5052106;28;20297;-81
2021/11/05 13:17:19;;;;;;;4.67;2.50;;;14.80;70.20;;;;;;5052462;28;20692;-82
2021/11/05 13:20:01;;;;;;;3.20;2.20;;;15.50;68.20;;;;;;5052709;28;20762;-81
2021/11/05 13:22:31;;;;;;;2.70;1.97;;;16.10;42.20;;;;;;5034457;28;20295;-81
2021/11/05 13:25:22;;;;;;;4.67;2.50;;;16.50;32.90;;;;;;5052262;28;20227;-82
2021/11/05 13:27:57;;;;;;;4.53;2.30;;;15.50;35.70;;;;;;5050893;28;20199;-82
2021/11/05 13:30:41;;;;;;;4.27;2.30;;;15.80;46.30;;;;;;5048930;28;20283;-82
2021/11/05 13:33:11;;;;;;;4.33;2.03;;;16.60;29.50;;;;;;5027944;28;20738;-81
2021/11/05 13:35:49;;;;;;;4.40;2.40;;;16.50;28.20;;;;;;5052459;28;20255;-82
2021/11/05 13:38:17;;;;;;;2.80;2.15;;;17.40;45.00;;;;;;5044306;28;20736;-83
2021/11/05 13:40:48;;;;;;;1.75;1.50;;;16.50;26.50;;;;;;5051857;28;20716;-82
2021/11/05 13:43:17;;;;;;;3.07;2.13;;;15.40;41.90;;;;;;5051855;28;20207;-82
2021/11/05 13:45:54;;;;;;;5.33;2.43;;;15.20;48.60;;;;;;5052339;28;20237;-82
2021/11/05 13:48:24;;;;;;;4.07;2.40;;;14.30;60.00;;;;;;5051440;28;20196;-81
2021/11/05 13:50:53;;;;;;;4.13;2.13;;;13.40;70.20;;;;;;5051497;28;20203;-81
2021/11/05 13:53:21;;;;;;;3.17;2.17;;;13.10;79.70;;;;;;5050885;28;20253;-81
2021/11/05 13:55:49;;;;;;;2.80;1.97;;;12.90;79.60;;;;;;5050672;28;20570;-81
2021/11/05 13:58:27;;;;;;;2.37;1.77;;;12.80;77.60;;;;;;5051886;28;20254;-82
2021/11/05 14:00:56;;;;;;;4.00;2.00;;;13.20;69.10;;;;;;5051754;28;20617;-81
2021/11/05 14:03:28;;;;;;;3.10;1.80;;;13.50;73.40;;;;;;5047880;28;20626;-82
2021/11/05 14:05:55;;;;;;;2.43;2.10;;;14.30;57.70;;;;;;5050236;28;20245;-83
2021/11/05 14:08:22;;;;;;;3.23;2.47;;;14.40;55.80;;;;;;5050305;28;20659;-82
2021/11/05 14:10:53;;;;;;;3.40;2.30;;;13.40;63.10;;;;;;5051559;28;20236;-83
2021/11/05 14:13:21;;;;;;;2.73;2.23;;;12.90;82.40;;;;;;5051015;28;20203;-82
2021/11/05 14:15:48;;;;;;;3.13;2.30;;;12.80;76.90;;;;;;5050312;28;20244;-82
2021/11/05 14:18:19;;;;;;;2.17;1.93;;;13.20;82.40;;;;;;5050917;28;20225;-82
2021/11/05 14:20:47;;;;;;;3.17;1.87;;;14.20;72.30;;;;;;5024964;28;20211;-82
2021/11/05 14:23:29;;;;;;;3.30;1.70;;;14.30;61.00;;;;;;5051437;28;20868;-83